sensor_id;sensor_type;location;lat;lon;timestamp;temperature;humidity
3925;DHT22;1977;52.274;10.518;2023-12-04T00:00:12;0.90;99.90
3925;DHT22;1977;52.274;10.518;2023-12-04T00:02:41;0.80;99.90
3925;DHT22;1977;52.274;10.518;2023-12-04T00:05:09;0.80;99.90
3925;DHT22;1977;52.274;10.518;2023-12-04T00:07:36;0.80;99.90
3925;DHT22;1977;52.274;10.518;2023-12-04T00:10:05;0.80;99.90
3925;DHT22;1977;52.274;10.518;2023-12-04T00:12:32;0.70;99.90
3925;DHT22;1977;52.274;10.518;2023-12-04T00:14:59;0.70;99.90
3925;DHT22;1977;52.274;10.518;2023-12-04T00:17:28;0.70;99.90
3925;DHT22;1977;52.274;10.518;2023-12-04T00:19:57;0.80;99.90
3925;DHT22;1977;52.274;10.518;2023-12-04T00:22:24;0.80;99.90
3925;DHT22;1977;52.274;10.518;2023-12-04T00:24:51;0.80;99.90
3925;DHT22;1977;52.274;10.518;2023-12-04T00:27:17;0.80;99.90
3925;DHT22;1977;52.274;10.518;2023-12-04T00:29:44;0.70;99.90
3925;DHT22;1977;52.274;10.518;2023-12-04T00:32:14;0.70;99.90
3925;DHT22;1977;52.274;10.518;2023-12-04T00:34:42;0.70;99.90
3925;DHT22;1977;52.274;10.518;2023-12-04T00:37:10;0.90;99.90
3925;DHT22;1977;52.274;10.518;2023-12-04T00:39:39;0.70;99.90
3925;DHT22;1977;52.274;10.518;2023-12-04T00:42:06;0.70;99.90
3925;DHT22;1977;52.274;10.518;2023-12-04T00:44:33;0.70;99.90
3925;DHT22;1977;52.274;10.518;2023-12-04T00:47:00;0.70;99.90
3925;DHT22;1977;52.274;10.518;2023-12-04T00:49:27;0.80;99.90
3925;DHT22;1977;52.274;10.518;2023-12-04T00:51:57;0.80;99.90
3925;DHT22;1977;52.274;10.518;2023-12-04T00:54:25;0.90;99.90
3925;DHT22;1977;52.274;10.518;2023-12-04T00:56:52;0.80;99.90
3925;DHT22;1977;52.274;10.518;2023-12-04T00:59:19;0.80;99.90
3925;DHT22;1977;52.274;10.518;2023-12-04T01:01:46;1.10;99.90
3925;DHT22;1977;52.274;10.518;2023-12-04T01:04:13;0.80;99.90
3925;DHT22;1977;52.274;10.518;2023-12-04T01:06:39;0.80;99.90
3925;DHT22;1977;52.274;10.518;2023-12-04T01:09:06;0.80;99.90
3925;DHT22;1977;52.274;10.518;2023-12-04T01:11:34;0.70;99.90
3925;DHT22;1977;52.274;10.518;2023-12-04T01:14:02;0.70;99.90
3925;DHT22;1977;52.274;10.518;2023-12-04T01:16:29;0.70;99.90
3925;DHT22;1977;52.274;10.518;2023-12-04T01:18:56;0.80;99.90
3925;DHT22;1977;52.274;10.518;2023-12-04T01:21:23;0.70;99.90
3925;DHT22;1977;52.274;10.518;2023-12-04T01:23:49;0.80;99.90
3925;DHT22;1977;52.274;10.518;2023-12-04T01:26:16;0.80;99.90
3925;DHT22;1977;52.274;10.518;2023-12-04T01:28:44;0.80;99.90
3925;DHT22;1977;52.274;10.518;2023-12-04T01:31:11;0.90;99.90
3925;DHT22;1977;52.274;10.518;2023-12-04T01:33:38;0.90;99.90
3925;DHT22;1977;52.274;10.518;2023-12-04T01:36:05;0.90;99.90
3925;DHT22;1977;52.274;10.518;2023-12-04T01:38:32;0.90;99.90
3925;DHT22;1977;52.274;10.518;2023-12-04T01:40:59;1.00;99.90
3925;DHT22;1977;52.274;10.518;2023-12-04T01:43:26;1.00;99.90
3925;DHT22;1977;52.274;10.518;2023-12-04T01:45:55;1.00;99.90
3925;DHT22;1977;52.274;10.518;2023-12-04T01:48:23;1.00;99.90
3925;DHT22;1977;52.274;10.518;2023-12-04T01:50:50;1.10;99.90
3925;DHT22;1977;52.274;10.518;2023-12-04T01:53:17;1.00;99.90
3925;DHT22;1977;52.274;10.518;2023-12-04T01:55:44;1.00;99.90
3925;DHT22;1977;52.274;10.518;2023-12-04T01:58:12;1.00;99.90
3925;DHT22;1977;52.274;10.518;2023-12-04T02:00:39;1.00;99.90
3925;DHT22;1977;52.274;10.518;2023-12-04T02:03:08;1.00;99.90
3925;DHT22;1977;52.274;10.518;2023-12-04T02:05:35;1.10;99.90
3925;DHT22;1977;52.274;10.518;2023-12-04T02:08:04;1.00;99.90
3925;DHT22;1977;52.274;10.518;2023-12-04T02:10:30;1.00;99.90
3925;DHT22;1977;52.274;10.518;2023-12-04T02:12:57;1.00;99.90
3925;DHT22;1977;52.274;10.518;2023-12-04T02:15:24;0.90;99.90
3925;DHT22;1977;52.274;10.518;2023-12-04T02:17:53;1.00;99.90
3925;DHT22;1977;52.274;10.518;2023-12-04T02:20:30;1.00;99.90
3925;DHT22;1977;52.274;10.518;2023-12-04T02:22:57;1.00;99.90
3925;DHT22;1977;52.274;10.518;2023-12-04T02:25:25;1.00;99.90
3925;DHT22;1977;52.274;10.518;2023-12-04T02:27:53;1.00;99.90
3925;DHT22;1977;52.274;10.518;2023-12-04T02:30:23;1.20;99.90
3925;DHT22;1977;52.274;10.518;2023-12-04T02:32:51;0.90;99.90
3925;DHT22;1977;52.274;10.518;2023-12-04T02:35:21;0.90;99.90
3925;DHT22;1977;52.274;10.518;2023-12-04T02:37:49;1.00;99.90
3925;DHT22;1977;52.274;10.518;2023-12-04T02:40:16;1.00;99.90
3925;DHT22;1977;52.274;10.518;2023-12-04T02:42:44;0.90;99.90
3925;DHT22;1977;52.274;10.518;2023-12-04T02:45:11;0.90;99.90
3925;DHT22;1977;52.274;10.518;2023-12-04T02:47:38;1.00;99.90
3925;DHT22;1977;52.274;10.518;2023-12-04T02:50:05;1.00;99.90
3925;DHT22;1977;52.274;10.518;2023-12-04T02:52:32;1.00;99.90
3925;DHT22;1977;52.274;10.518;2023-12-04T02:54:59;1.10;99.90
3925;DHT22;1977;52.274;10.518;2023-12-04T02:57:26;1.10;99.90
3925;DHT22;1977;52.274;10.518;2023-12-04T02:59:54;1.10;99.90
3925;DHT22;1977;52.274;10.518;2023-12-04T03:02:21;1.10;99.90
3925;DHT22;1977;52.274;10.518;2023-12-04T03:04:47;1.10;99.90
3925;DHT22;1977;52.274;10.518;2023-12-04T03:07:14;1.10;99.90
3925;DHT22;1977;52.274;10.518;2023-12-04T03:09:41;1.10;99.90
3925;DHT22;1977;52.274;10.518;2023-12-04T03:12:08;1.10;99.90
3925;DHT22;1977;52.274;10.518;2023-12-04T03:14:34;1.10;99.90
3925;DHT22;1977;52.274;10.518;2023-12-04T03:17:03;1.10;99.90
3925;DHT22;1977;52.274;10.518;2023-12-04T03:19:29;1.20;99.90
3925;DHT22;1977;52.274;10.518;2023-12-04T03:21:55;1.30;99.90
3925;DHT22;1977;52.274;10.518;2023-12-04T03:24:22;1.40;99.90
3925;DHT22;1977;52.274;10.518;2023-12-04T03:26:49;1.40;99.90
3925;DHT22;1977;52.274;10.518;2023-12-04T03:29:16;1.40;99.90
3925;DHT22;1977;52.274;10.518;2023-12-04T03:31:42;1.50;99.90
3925;DHT22;1977;52.274;10.518;2023-12-04T03:34:10;1.50;99.90
3925;DHT22;1977;52.274;10.518;2023-12-04T03:36:37;1.50;99.90
3925;DHT22;1977;52.274;10.518;2023-12-04T03:39:04;1.70;99.90
3925;DHT22;1977;52.274;10.518;2023-12-04T03:41:31;1.60;99.90
3925;DHT22;1977;52.274;10.518;2023-12-04T03:43:57;1.50;99.90
3925;DHT22;1977;52.274;10.518;2023-12-04T03:46:24;1.50;99.90
3925;DHT22;1977;52.274;10.518;2023-12-04T03:48:51;1.50;99.90
3925;DHT22;1977;52.274;10.518;2023-12-04T03:51:19;1.40;99.90
3925;DHT22;1977;52.274;10.518;2023-12-04T03:53:46;1.50;99.90
3925;DHT22;1977;52.274;10.518;2023-12-04T03:56:12;1.40;99.90
3925;DHT22;1977;52.274;10.518;2023-12-04T03:58:39;1.40;99.90
3925;DHT22;1977;52.274;10.518;2023-12-04T04:01:06;1.40;99.90
3925;DHT22;1977;52.274;10.518;2023-12-04T04:03:33;1.50;99.90
3925;DHT22;1977;52.274;10.518;2023-12-04T04:06:00;1.50;99.90
3925;DHT22;1977;52.274;10.518;2023-12-04T04:08:28;1.60;99.90
3925;DHT22;1977;52.274;10.518;2023-12-04T04:10:55;1.60;99.90
3925;DHT22;1977;52.274;10.518;2023-12-04T04:13:21;1.70;99.90
3925;DHT22;1977;52.274;10.518;2023-12-04T04:15:48;1.70;99.90
3925;DHT22;1977;52.274;10.518;2023-12-04T04:18:15;1.70;99.90
3925;DHT22;1977;52.274;10.518;2023-12-04T04:20:42;1.70;99.90
3925;DHT22;1977;52.274;10.518;2023-12-04T04:23:08;1.70;99.90
3925;DHT22;1977;52.274;10.518;2023-12-04T04:25:37;1.70;99.90
3925;DHT22;1977;52.274;10.518;2023-12-04T04:28:03;1.70;99.90
3925;DHT22;1977;52.274;10.518;2023-12-04T04:30:30;1.70;99.90
3925;DHT22;1977;52.274;10.518;2023-12-04T04:32:57;1.70;99.90
3925;DHT22;1977;52.274;10.518;2023-12-04T04:35:23;1.70;99.90
3925;DHT22;1977;52.274;10.518;2023-12-04T04:37:50;1.80;99.90
3925;DHT22;1977;52.274;10.518;2023-12-04T04:40:17;1.80;99.90
3925;DHT22;1977;52.274;10.518;2023-12-04T04:42:46;1.80;99.90
3925;DHT22;1977;52.274;10.518;2023-12-04T04:45:13;1.90;99.90
3925;DHT22;1977;52.274;10.518;2023-12-04T04:47:40;1.90;99.90
3925;DHT22;1977;52.274;10.518;2023-12-04T04:50:07;1.90;99.90
3925;DHT22;1977;52.274;10.518;2023-12-04T04:52:34;1.90;99.90
3925;DHT22;1977;52.274;10.518;2023-12-04T04:55:01;1.90;99.90
3925;DHT22;1977;52.274;10.518;2023-12-04T04:57:28;1.90;99.90
3925;DHT22;1977;52.274;10.518;2023-12-04T04:59:56;2.00;99.90
3925;DHT22;1977;52.274;10.518;2023-12-04T05:02:22;2.00;99.90
3925;DHT22;1977;52.274;10.518;2023-12-04T05:04:49;2.00;99.90
3925;DHT22;1977;52.274;10.518;2023-12-04T05:07:16;2.00;99.90
3925;DHT22;1977;52.274;10.518;2023-12-04T05:09:43;2.00;99.90
3925;DHT22;1977;52.274;10.518;2023-12-04T05:12:10;2.10;99.90
3925;DHT22;1977;52.274;10.518;2023-12-04T05:14:36;2.00;99.90
3925;DHT22;1977;52.274;10.518;2023-12-04T05:17:05;2.00;99.90
3925;DHT22;1977;52.274;10.518;2023-12-04T05:19:31;1.90;99.90
3925;DHT22;1977;52.274;10.518;2023-12-04T05:21:59;1.90;99.90
3925;DHT22;1977;52.274;10.518;2023-12-04T05:24:25;1.80;99.90
3925;DHT22;1977;52.274;10.518;2023-12-04T05:26:52;1.80;99.90
3925;DHT22;1977;52.274;10.518;2023-12-04T05:29:19;1.80;99.90
3925;DHT22;1977;52.274;10.518;2023-12-04T05:31:47;1.80;99.90
3925;DHT22;1977;52.274;10.518;2023-12-04T05:34:15;1.90;99.90
3925;DHT22;1977;52.274;10.518;2023-12-04T05:36:41;1.90;99.90
3925;DHT22;1977;52.274;10.518;2023-12-04T05:39:08;1.90;99.90
3925;DHT22;1977;52.274;10.518;2023-12-04T05:41:35;1.80;99.90
3925;DHT22;1977;52.274;10.518;2023-12-04T05:44:02;1.90;99.90
3925;DHT22;1977;52.274;10.518;2023-12-04T05:46:29;1.80;99.90
3925;DHT22;1977;52.274;10.518;2023-12-04T05:48:55;1.80;99.90
3925;DHT22;1977;52.274;10.518;2023-12-04T05:51:23;1.80;99.90
3925;DHT22;1977;52.274;10.518;2023-12-04T05:53:50;1.80;99.90
3925;DHT22;1977;52.274;10.518;2023-12-04T05:56:17;1.90;99.90
3925;DHT22;1977;52.274;10.518;2023-12-04T05:58:44;1.80;99.90
3925;DHT22;1977;52.274;10.518;2023-12-04T06:01:10;1.90;99.90
3925;DHT22;1977;52.274;10.518;2023-12-04T06:03:37;1.90;99.90
3925;DHT22;1977;52.274;10.518;2023-12-04T06:06:04;1.90;99.90
3925;DHT22;1977;52.274;10.518;2023-12-04T06:08:32;1.80;99.90
3925;DHT22;1977;52.274;10.518;2023-12-04T06:10:59;1.70;99.90
3925;DHT22;1977;52.274;10.518;2023-12-04T06:13:26;1.80;99.90
3925;DHT22;1977;52.274;10.518;2023-12-04T06:15:53;1.90;99.90
3925;DHT22;1977;52.274;10.518;2023-12-04T06:18:19;1.90;99.90
3925;DHT22;1977;52.274;10.518;2023-12-04T06:20:47;1.80;99.90
3925;DHT22;1977;52.274;10.518;2023-12-04T06:23:14;1.90;99.90
3925;DHT22;1977;52.274;10.518;2023-12-04T06:25:43;1.90;99.90
3925;DHT22;1977;52.274;10.518;2023-12-04T06:28:10;1.80;99.90
3925;DHT22;1977;52.274;10.518;2023-12-04T06:30:38;1.90;99.90
3925;DHT22;1977;52.274;10.518;2023-12-04T06:33:06;1.90;99.90
3925;DHT22;1977;52.274;10.518;2023-12-04T06:35:34;1.80;99.90
3925;DHT22;1977;52.274;10.518;2023-12-04T06:38:06;1.90;99.90
3925;DHT22;1977;52.274;10.518;2023-12-04T06:40:34;1.90;99.90
3925;DHT22;1977;52.274;10.518;2023-12-04T06:43:02;1.90;99.90
3925;DHT22;1977;52.274;10.518;2023-12-04T06:45:30;1.90;99.90
3925;DHT22;1977;52.274;10.518;2023-12-04T06:47:59;1.90;99.90
3925;DHT22;1977;52.274;10.518;2023-12-04T06:50:26;1.90;99.90
3925;DHT22;1977;52.274;10.518;2023-12-04T06:52:53;2.00;99.90
3925;DHT22;1977;52.274;10.518;2023-12-04T06:55:19;2.10;99.90
3925;DHT22;1977;52.274;10.518;2023-12-04T06:57:46;1.90;99.90
3925;DHT22;1977;52.274;10.518;2023-12-04T07:00:15;1.90;99.90
3925;DHT22;1977;52.274;10.518;2023-12-04T07:02:42;1.90;99.90
3925;DHT22;1977;52.274;10.518;2023-12-04T07:05:09;1.90;99.90
3925;DHT22;1977;52.274;10.518;2023-12-04T07:07:35;1.80;99.90
3925;DHT22;1977;52.274;10.518;2023-12-04T07:10:02;1.80;99.90
3925;DHT22;1977;52.274;10.518;2023-12-04T07:12:29;1.70;99.90
3925;DHT22;1977;52.274;10.518;2023-12-04T07:14:56;1.70;99.90
3925;DHT22;1977;52.274;10.518;2023-12-04T07:17:24;1.60;99.90
3925;DHT22;1977;52.274;10.518;2023-12-04T07:19:51;1.60;99.90
3925;DHT22;1977;52.274;10.518;2023-12-04T07:22:18;1.70;99.90
3925;DHT22;1977;52.274;10.518;2023-12-04T07:24:45;1.70;99.90
3925;DHT22;1977;52.274;10.518;2023-12-04T07:27:11;1.60;99.90
3925;DHT22;1977;52.274;10.518;2023-12-04T07:29:38;1.70;99.90
3925;DHT22;1977;52.274;10.518;2023-12-04T07:32:06;1.70;99.90
3925;DHT22;1977;52.274;10.518;2023-12-04T07:34:34;1.60;99.90
3925;DHT22;1977;52.274;10.518;2023-12-04T07:37:02;1.60;99.90
3925;DHT22;1977;52.274;10.518;2023-12-04T07:39:29;1.70;99.90
3925;DHT22;1977;52.274;10.518;2023-12-04T07:41:55;1.70;99.90
3925;DHT22;1977;52.274;10.518;2023-12-04T07:44:22;1.60;99.90
3925;DHT22;1977;52.274;10.518;2023-12-04T07:46:49;1.70;99.90
3925;DHT22;1977;52.274;10.518;2023-12-04T07:49:16;1.70;99.90
3925;DHT22;1977;52.274;10.518;2023-12-04T07:51:44;1.80;99.90
3925;DHT22;1977;52.274;10.518;2023-12-04T07:54:10;1.80;99.90
3925;DHT22;1977;52.274;10.518;2023-12-04T07:56:37;1.90;99.90
3925;DHT22;1977;52.274;10.518;2023-12-04T07:59:04;1.90;99.90
3925;DHT22;1977;52.274;10.518;2023-12-04T08:01:32;1.90;99.90
3925;DHT22;1977;52.274;10.518;2023-12-04T08:04:00;1.90;99.90
3925;DHT22;1977;52.274;10.518;2023-12-04T08:06:27;1.80;99.90
3925;DHT22;1977;52.274;10.518;2023-12-04T08:08:56;1.90;99.90
3925;DHT22;1977;52.274;10.518;2023-12-04T08:11:24;1.90;99.90
3925;DHT22;1977;52.274;10.518;2023-12-04T08:13:51;1.90;99.90
3925;DHT22;1977;52.274;10.518;2023-12-04T08:16:18;2.00;99.90
3925;DHT22;1977;52.274;10.518;2023-12-04T08:18:45;2.00;99.90
3925;DHT22;1977;52.274;10.518;2023-12-04T08:21:12;2.10;99.90
3925;DHT22;1977;52.274;10.518;2023-12-04T08:23:39;2.10;99.90
3925;DHT22;1977;52.274;10.518;2023-12-04T08:26:07;2.20;99.90
3925;DHT22;1977;52.274;10.518;2023-12-04T08:28:34;2.20;99.90
3925;DHT22;1977;52.274;10.518;2023-12-04T08:31:03;2.20;99.90
3925;DHT22;1977;52.274;10.518;2023-12-04T08:33:30;2.20;99.90
3925;DHT22;1977;52.274;10.518;2023-12-04T08:35:56;2.20;99.90
3925;DHT22;1977;52.274;10.518;2023-12-04T08:38:23;2.20;99.90
3925;DHT22;1977;52.274;10.518;2023-12-04T08:40:50;2.20;99.90
3925;DHT22;1977;52.274;10.518;2023-12-04T08:43:18;2.10;99.90
3925;DHT22;1977;52.274;10.518;2023-12-04T08:45:45;2.20;99.90
3925;DHT22;1977;52.274;10.518;2023-12-04T08:48:12;2.20;99.90
3925;DHT22;1977;52.274;10.518;2023-12-04T08:50:39;2.20;99.90
3925;DHT22;1977;52.274;10.518;2023-12-04T08:53:06;2.20;99.90
3925;DHT22;1977;52.274;10.518;2023-12-04T08:55:32;2.30;99.90
3925;DHT22;1977;52.274;10.518;2023-12-04T08:57:59;2.40;99.90
3925;DHT22;1977;52.274;10.518;2023-12-04T09:00:28;2.40;99.90
3925;DHT22;1977;52.274;10.518;2023-12-04T09:02:54;2.40;99.90
3925;DHT22;1977;52.274;10.518;2023-12-04T09:05:21;2.40;99.90
3925;DHT22;1977;52.274;10.518;2023-12-04T09:07:48;2.40;99.90
3925;DHT22;1977;52.274;10.518;2023-12-04T09:10:15;2.50;99.90
3925;DHT22;1977;52.274;10.518;2023-12-04T09:12:42;2.50;99.90
3925;DHT22;1977;52.274;10.518;2023-12-04T09:15:09;2.60;99.90
3925;DHT22;1977;52.274;10.518;2023-12-04T09:17:38;2.60;99.90
3925;DHT22;1977;52.274;10.518;2023-12-04T09:20:06;2.60;99.90
3925;DHT22;1977;52.274;10.518;2023-12-04T09:22:34;2.60;99.90
3925;DHT22;1977;52.274;10.518;2023-12-04T09:25:04;2.50;99.90
3925;DHT22;1977;52.274;10.518;2023-12-04T09:27:31;2.50;99.90
3925;DHT22;1977;52.274;10.518;2023-12-04T09:29:58;2.60;99.90
3925;DHT22;1977;52.274;10.518;2023-12-04T09:32:25;2.60;99.90
3925;DHT22;1977;52.274;10.518;2023-12-04T09:34:53;2.60;99.90
3925;DHT22;1977;52.274;10.518;2023-12-04T09:37:20;2.50;99.90
3925;DHT22;1977;52.274;10.518;2023-12-04T09:39:46;2.50;99.90
3925;DHT22;1977;52.274;10.518;2023-12-04T09:42:15;2.50;99.90
3925;DHT22;1977;52.274;10.518;2023-12-04T09:44:44;2.50;99.90
3925;DHT22;1977;52.274;10.518;2023-12-04T09:47:12;2.50;99.90
3925;DHT22;1977;52.274;10.518;2023-12-04T09:49:39;2.60;99.90
3925;DHT22;1977;52.274;10.518;2023-12-04T09:52:07;2.70;99.90
3925;DHT22;1977;52.274;10.518;2023-12-04T09:54:35;2.70;99.90
3925;DHT22;1977;52.274;10.518;2023-12-04T09:57:03;2.70;99.90
3925;DHT22;1977;52.274;10.518;2023-12-04T09:59:30;2.80;99.90
3925;DHT22;1977;52.274;10.518;2023-12-04T10:01:57;2.80;99.90
3925;DHT22;1977;52.274;10.518;2023-12-04T10:04:25;2.80;99.90
3925;DHT22;1977;52.274;10.518;2023-12-04T10:06:52;2.80;99.90
3925;DHT22;1977;52.274;10.518;2023-12-04T10:09:20;2.80;99.90
3925;DHT22;1977;52.274;10.518;2023-12-04T10:11:49;3.00;99.90
3925;DHT22;1977;52.274;10.518;2023-12-04T10:14:19;3.00;99.90
3925;DHT22;1977;52.274;10.518;2023-12-04T10:16:46;3.00;99.90
3925;DHT22;1977;52.274;10.518;2023-12-04T10:19:18;3.10;99.90
3925;DHT22;1977;52.274;10.518;2023-12-04T10:21:46;3.20;99.90
3925;DHT22;1977;52.274;10.518;2023-12-04T10:24:30;3.20;99.90
3925;DHT22;1977;52.274;10.518;2023-12-04T10:26:57;3.30;99.90
3925;DHT22;1977;52.274;10.518;2023-12-04T10:29:27;3.20;99.90
3925;DHT22;1977;52.274;10.518;2023-12-04T10:31:54;3.30;99.90
3925;DHT22;1977;52.274;10.518;2023-12-04T10:34:21;3.20;99.90
3925;DHT22;1977;52.274;10.518;2023-12-04T10:36:51;3.20;99.90
3925;DHT22;1977;52.274;10.518;2023-12-04T10:39:18;3.10;99.90
3925;DHT22;1977;52.274;10.518;2023-12-04T10:41:59;3.10;99.90
3925;DHT22;1977;52.274;10.518;2023-12-04T10:44:26;3.10;99.90
3925;DHT22;1977;52.274;10.518;2023-12-04T10:46:54;3.10;99.90
3925;DHT22;1977;52.274;10.518;2023-12-04T10:49:26;3.10;99.90
3925;DHT22;1977;52.274;10.518;2023-12-04T10:51:55;3.20;99.90
3925;DHT22;1977;52.274;10.518;2023-12-04T10:54:22;3.20;99.90
3925;DHT22;1977;52.274;10.518;2023-12-04T10:56:52;3.30;99.90
3925;DHT22;1977;52.274;10.518;2023-12-04T10:59:25;3.30;99.90
3925;DHT22;1977;52.274;10.518;2023-12-04T11:01:54;3.30;99.90
3925;DHT22;1977;52.274;10.518;2023-12-04T11:04:23;3.20;99.90
3925;DHT22;1977;52.274;10.518;2023-12-04T11:06:53;3.10;99.90
3925;DHT22;1977;52.274;10.518;2023-12-04T11:09:21;3.10;99.90
3925;DHT22;1977;52.274;10.518;2023-12-04T11:11:57;3.00;99.90
3925;DHT22;1977;52.274;10.518;2023-12-04T11:14:28;3.00;99.90
3925;DHT22;1977;52.274;10.518;2023-12-04T11:17:03;3.10;99.90
3925;DHT22;1977;52.274;10.518;2023-12-04T11:19:37;3.00;99.90
3925;DHT22;1977;52.274;10.518;2023-12-04T11:22:07;3.00;99.90
3925;DHT22;1977;52.274;10.518;2023-12-04T11:24:35;3.00;99.90
3925;DHT22;1977;52.274;10.518;2023-12-04T11:27:04;3.10;99.90
3925;DHT22;1977;52.274;10.518;2023-12-04T11:29:31;3.20;99.90
3925;DHT22;1977;52.274;10.518;2023-12-04T11:31:58;3.20;99.90
3925;DHT22;1977;52.274;10.518;2023-12-04T11:34:25;3.20;99.90
3925;DHT22;1977;52.274;10.518;2023-12-04T11:36:52;3.20;99.90
3925;DHT22;1977;52.274;10.518;2023-12-04T11:39:21;3.20;99.90
3925;DHT22;1977;52.274;10.518;2023-12-04T11:41:50;3.10;99.90
3925;DHT22;1977;52.274;10.518;2023-12-04T11:44:18;3.20;99.90
3925;DHT22;1977;52.274;10.518;2023-12-04T11:46:55;3.10;99.90
3925;DHT22;1977;52.274;10.518;2023-12-04T11:49:29;3.20;99.90
3925;DHT22;1977;52.274;10.518;2023-12-04T11:52:00;3.20;99.90
3925;DHT22;1977;52.274;10.518;2023-12-04T11:54:27;3.30;99.90
3925;DHT22;1977;52.274;10.518;2023-12-04T11:56:59;3.30;99.90
3925;DHT22;1977;52.274;10.518;2023-12-04T11:59:28;3.30;99.90
3925;DHT22;1977;52.274;10.518;2023-12-04T12:01:55;3.40;99.90
3925;DHT22;1977;52.274;10.518;2023-12-04T12:04:23;3.30;99.90
3925;DHT22;1977;52.274;10.518;2023-12-04T12:06:52;3.30;99.90
3925;DHT22;1977;52.274;10.518;2023-12-04T12:09:19;3.40;99.90
3925;DHT22;1977;52.274;10.518;2023-12-04T12:11:46;3.30;99.90
3925;DHT22;1977;52.274;10.518;2023-12-04T12:14:13;3.40;99.90
3925;DHT22;1977;52.274;10.518;2023-12-04T12:16:41;3.40;99.90
3925;DHT22;1977;52.274;10.518;2023-12-04T12:19:08;3.30;99.90
3925;DHT22;1977;52.274;10.518;2023-12-04T12:21:36;3.30;99.90
3925;DHT22;1977;52.274;10.518;2023-12-04T12:24:03;3.20;99.90
3925;DHT22;1977;52.274;10.518;2023-12-04T12:26:32;3.20;99.90
3925;DHT22;1977;52.274;10.518;2023-12-04T12:28:58;3.30;99.90
3925;DHT22;1977;52.274;10.518;2023-12-04T12:31:25;3.30;99.90
3925;DHT22;1977;52.274;10.518;2023-12-04T12:33:55;3.20;99.90
3925;DHT22;1977;52.274;10.518;2023-12-04T12:36:22;3.30;99.90
3925;DHT22;1977;52.274;10.518;2023-12-04T12:38:49;3.40;99.90
3925;DHT22;1977;52.274;10.518;2023-12-04T12:41:16;3.40;99.90
3925;DHT22;1977;52.274;10.518;2023-12-04T12:43:43;3.40;99.90
3925;DHT22;1977;52.274;10.518;2023-12-04T12:46:10;3.40;99.90
3925;DHT22;1977;52.274;10.518;2023-12-04T12:48:37;3.40;99.90
3925;DHT22;1977;52.274;10.518;2023-12-04T12:51:06;3.50;99.90
3925;DHT22;1977;52.274;10.518;2023-12-04T12:53:33;3.50;99.70
3925;DHT22;1977;52.274;10.518;2023-12-04T12:56:00;3.50;99.70
3925;DHT22;1977;52.274;10.518;2023-12-04T12:58:27;3.50;99.40
3925;DHT22;1977;52.274;10.518;2023-12-04T13:00:55;3.50;99.60
3925;DHT22;1977;52.274;10.518;2023-12-04T13:03:21;3.40;99.60
3925;DHT22;1977;52.274;10.518;2023-12-04T13:05:48;3.40;99.40
3925;DHT22;1977;52.274;10.518;2023-12-04T13:08:16;3.40;99.50
3925;DHT22;1977;52.274;10.518;2023-12-04T13:10:43;3.40;99.70
3925;DHT22;1977;52.274;10.518;2023-12-04T13:13:10;3.30;99.80
3925;DHT22;1977;52.274;10.518;2023-12-04T13:15:37;3.30;99.90
3925;DHT22;1977;52.274;10.518;2023-12-04T13:18:04;3.30;99.90
3925;DHT22;1977;52.274;10.518;2023-12-04T13:20:31;3.30;99.90
3925;DHT22;1977;52.274;10.518;2023-12-04T13:22:58;3.30;99.90
3925;DHT22;1977;52.274;10.518;2023-12-04T13:25:26;3.20;99.90
3925;DHT22;1977;52.274;10.518;2023-12-04T13:27:53;3.20;99.90
3925;DHT22;1977;52.274;10.518;2023-12-04T13:30:20;3.20;99.90
3925;DHT22;1977;52.274;10.518;2023-12-04T13:32:47;3.20;99.90
3925;DHT22;1977;52.274;10.518;2023-12-04T13:35:16;3.20;99.90
3925;DHT22;1977;52.274;10.518;2023-12-04T13:37:42;3.30;99.90
3925;DHT22;1977;52.274;10.518;2023-12-04T13:40:09;3.30;99.90
3925;DHT22;1977;52.274;10.518;2023-12-04T13:42:42;3.30;99.90
3925;DHT22;1977;52.274;10.518;2023-12-04T13:45:32;3.30;99.90
3925;DHT22;1977;52.274;10.518;2023-12-04T13:48:00;3.20;99.90
3925;DHT22;1977;52.274;10.518;2023-12-04T13:50:27;3.20;99.60
3925;DHT22;1977;52.274;10.518;2023-12-04T13:52:54;3.20;99.60
3925;DHT22;1977;52.274;10.518;2023-12-04T13:55:23;3.20;99.50
3925;DHT22;1977;52.274;10.518;2023-12-04T13:58:06;3.20;99.40
3925;DHT22;1977;52.274;10.518;2023-12-04T14:00:49;3.20;99.50
3925;DHT22;1977;52.274;10.518;2023-12-04T14:03:15;3.30;99.50
3925;DHT22;1977;52.274;10.518;2023-12-04T14:05:43;3.30;99.40
3925;DHT22;1977;52.274;10.518;2023-12-04T14:08:10;3.30;99.60
3925;DHT22;1977;52.274;10.518;2023-12-04T14:10:36;3.30;99.90
3925;DHT22;1977;52.274;10.518;2023-12-04T14:13:03;3.40;99.90
3925;DHT22;1977;52.274;10.518;2023-12-04T14:15:31;3.40;99.60
3925;DHT22;1977;52.274;10.518;2023-12-04T14:17:58;3.40;99.30
3925;DHT22;1977;52.274;10.518;2023-12-04T14:20:25;3.30;99.10
3925;DHT22;1977;52.274;10.518;2023-12-04T14:22:51;3.20;99.10
3925;DHT22;1977;52.274;10.518;2023-12-04T14:25:18;3.10;99.00
3925;DHT22;1977;52.274;10.518;2023-12-04T14:27:45;3.10;99.30
3925;DHT22;1977;52.274;10.518;2023-12-04T14:30:12;3.20;99.50
3925;DHT22;1977;52.274;10.518;2023-12-04T14:32:40;3.10;99.20
3925;DHT22;1977;52.274;10.518;2023-12-04T14:35:08;3.10;99.20
3925;DHT22;1977;52.274;10.518;2023-12-04T14:37:35;3.10;99.30
3925;DHT22;1977;52.274;10.518;2023-12-04T14:40:02;3.10;99.60
3925;DHT22;1977;52.274;10.518;2023-12-04T14:42:30;3.10;99.60
3925;DHT22;1977;52.274;10.518;2023-12-04T14:44:56;3.00;99.60
3925;DHT22;1977;52.274;10.518;2023-12-04T14:47:23;2.90;99.80
3925;DHT22;1977;52.274;10.518;2023-12-04T14:49:51;2.90;99.90
3925;DHT22;1977;52.274;10.518;2023-12-04T14:52:20;3.00;99.90
3925;DHT22;1977;52.274;10.518;2023-12-04T14:54:48;3.00;99.90
3925;DHT22;1977;52.274;10.518;2023-12-04T14:57:38;3.10;99.50
3925;DHT22;1977;52.274;10.518;2023-12-04T15:00:33;3.10;99.60
3925;DHT22;1977;52.274;10.518;2023-12-04T15:03:14;3.10;99.40
3925;DHT22;1977;52.274;10.518;2023-12-04T15:06:09;3.10;99.20
3925;DHT22;1977;52.274;10.518;2023-12-04T15:09:07;3.10;99.60
3925;DHT22;1977;52.274;10.518;2023-12-04T15:11:51;3.10;98.90
3925;DHT22;1977;52.274;10.518;2023-12-04T15:14:42;3.10;98.80
3925;DHT22;1977;52.274;10.518;2023-12-04T15:17:15;3.20;99.20
3925;DHT22;1977;52.274;10.518;2023-12-04T15:19:54;3.10;99.10
3925;DHT22;1977;52.274;10.518;2023-12-04T15:22:46;3.10;99.50
3925;DHT22;1977;52.274;10.518;2023-12-04T15:25:13;3.20;99.20
3925;DHT22;1977;52.274;10.518;2023-12-04T15:27:39;3.00;98.80
3925;DHT22;1977;52.274;10.518;2023-12-04T15:30:06;3.00;99.00
3925;DHT22;1977;52.274;10.518;2023-12-04T15:32:33;2.90;99.00
3925;DHT22;1977;52.274;10.518;2023-12-04T15:35:00;2.90;99.30
3925;DHT22;1977;52.274;10.518;2023-12-04T15:37:27;2.80;99.10
3925;DHT22;1977;52.274;10.518;2023-12-04T15:39:54;2.80;99.30
3925;DHT22;1977;52.274;10.518;2023-12-04T15:42:21;2.70;99.40
3925;DHT22;1977;52.274;10.518;2023-12-04T15:44:47;2.80;99.50
3925;DHT22;1977;52.274;10.518;2023-12-04T15:47:14;2.80;99.40
3925;DHT22;1977;52.274;10.518;2023-12-04T15:49:39;2.70;99.50
3925;DHT22;1977;52.274;10.518;2023-12-04T15:52:06;2.70;99.70
3925;DHT22;1977;52.274;10.518;2023-12-04T15:54:33;2.70;99.70
3925;DHT22;1977;52.274;10.518;2023-12-04T15:57:01;2.60;99.70
3925;DHT22;1977;52.274;10.518;2023-12-04T15:59:27;2.70;99.80
3925;DHT22;1977;52.274;10.518;2023-12-04T16:01:54;2.50;99.90
3925;DHT22;1977;52.274;10.518;2023-12-04T16:04:20;2.60;99.90
3925;DHT22;1977;52.274;10.518;2023-12-04T16:06:46;2.60;99.90